Morgenster — PHMY — position and weather

sailwx.info

Track history (hours):
 
Tides and Currents Weather Stations Pressure Air Temp Water Temp Dewpoint Dewpoint Depression Visibility Wind Speed Wind Dir Waves Ship Positions

Morgenster

Last reported at 2015-May-26 15:34 UTC. Time now 2015-May-28 10:10 UTC.
Position N 51°28' W 002°54'.

Length 38 m; draft 2.4 m.

Type: Sailing vessel. MMSI: 245136000.

Date/timePositionNaut miles runAvg speedWind from/ knotsBaromVisibWave heightAir tempDewpointWater temp
2015-May-26 15:34N 51°28' W 002°54'8 8.2
2015-May-26 14:33N 51°33' W 002°43'8 7.1
2015-May-26 13:25N 51°40' W 002°36'5 5.8
2015-May-26 12:33N 51°42' W 002°29'1 1.5
2015-May-26 11:33N 51°44' W 002°28'1 0.9
2015-May-26 10:31N 51°44' W 002°27'2 2.3
2015-May-26 09:32N 51°44' W 002°24'4 3.8
2015-May-26 08:30N 51°47' W 002°20'  
2015-May-21 12:32N 51°49' W 002°18'4 4.1
2015-May-21 11:33N 51°46' W 002°22'5 3.3
2015-May-21 10:07N 51°43' W 002°29'1 1.8
2015-May-21 09:28N 51°42' W 002°29'8 7.7
2015-May-21 08:30N 51°37' W 002°38'7 7.2
2015-May-21 07:33N 51°31' W 002°43'104 6.1
2015-May-20 14:33N 50°37' W 005°04'6 6.2
2015-May-20 13:33N 50°32' W 005°11'6 5.7
2015-May-20 12:33N 50°28' W 005°18'109 2.4
2015-May-18 14:33N 48°39' W 005°10'80 5.3
2015-May-17 23:25N 47°33' W 004°01'39 8.1
2015-May-17 18:33N 47°26' W 003°03'9 8.8
2015-May-17 17:33N 47°33' W 002°55'7 6.8
2015-May-17 16:33N 47°37' W 002°47'2 1.9
2015-May-17 15:23N 47°39' W 002°45'0 0.0
2015-May-17 14:23N 47°39' W 002°45'0 0.0
2015-May-17 13:26N 47°39' W 002°45'0 0.0
2015-May-17 12:23N 47°39' W 002°45'0 0.0
2015-May-17 11:29N 47°39' W 002°45'0 0.0
2015-May-17 10:29N 47°39' W 002°45'0 0.0
2015-May-17 09:29N 47°39' W 002°45'0 0.0
2015-May-17 08:29N 47°39' W 002°45'0 0.0
2015-May-17 07:29N 47°39' W 002°45'0 0.0
2015-May-17 06:32N 47°39' W 002°45'0 0.0
2015-May-17 05:29N 47°39' W 002°45'0 0.0
2015-May-17 04:29N 47°39' W 002°45'0 0.0
2015-May-17 03:32N 47°39' W 002°45'0 0.0
2015-May-17 02:32N 47°39' W 002°45'0 0.0
2015-May-17 01:20N 47°39' W 002°45'0 0.0
2015-May-17 00:23N 47°39' W 002°45'0 0.0
2015-May-16 23:23N 47°39' W 002°45'0 0.0
2015-May-16 22:26N 47°39' W 002°45'0 0.0
2015-May-16 21:26N 47°39' W 002°45'0 0.0
2015-May-16 20:26N 47°39' W 002°45'0 0.0
2015-May-16 19:29N 47°39' W 002°45'0 0.0
2015-May-16 18:32N 47°39' W 002°45'0 0.0
2015-May-16 17:29N 47°39' W 002°45'0 0.0
2015-May-16 16:32N 47°39' W 002°45'  
Track history (hours):
 
Tides and Currents Weather Stations Pressure Air Temp Water Temp Dewpoint Dewpoint Depression Visibility Wind Speed Wind Dir Waves Ship Positions

Morgenster

Last reported at 2015-May-26 15:34 UTC. Time now 2015-May-28 10:10 UTC.
Position N 51°28' W 002°54'.

Length 38 m; draft 2.4 m.

Type: Sailing vessel. MMSI: 245136000.

Date/timePositionNaut miles runAvg speedWind from/ knotsBaromVisibWave heightAir tempDewpointWater temp
2015-May-26 15:34N 51°28' W 002°54'8 8.2
2015-May-26 14:33N 51°33' W 002°43'8 7.1
2015-May-26 13:25N 51°40' W 002°36'5 5.8
2015-May-26 12:33N 51°42' W 002°29'1 1.5
2015-May-26 11:33N 51°44' W 002°28'1 0.9
2015-May-26 10:31N 51°44' W 002°27'2 2.3
2015-May-26 09:32N 51°44' W 002°24'4 3.8
2015-May-26 08:30N 51°47' W 002°20'  
2015-May-21 12:32N 51°49' W 002°18'4 4.1
2015-May-21 11:33N 51°46' W 002°22'5 3.3
2015-May-21 10:07N 51°43' W 002°29'1 1.8
2015-May-21 09:28N 51°42' W 002°29'8 7.7
2015-May-21 08:30N 51°37' W 002°38'7 7.2
2015-May-21 07:33N 51°31' W 002°43'104 6.1
2015-May-20 14:33N 50°37' W 005°04'6 6.2
2015-May-20 13:33N 50°32' W 005°11'6 5.7
2015-May-20 12:33N 50°28' W 005°18'109 2.4
2015-May-18 14:33N 48°39' W 005°10'80 5.3
2015-May-17 23:25N 47°33' W 004°01'39 8.1
2015-May-17 18:33N 47°26' W 003°03'9 8.8
2015-May-17 17:33N 47°33' W 002°55'7 6.8
2015-May-17 16:33N 47°37' W 002°47'2 1.9
2015-May-17 15:23N 47°39' W 002°45'0 0.0
2015-May-17 14:23N 47°39' W 002°45'0 0.0
2015-May-17 13:26N 47°39' W 002°45'0 0.0
2015-May-17 12:23N 47°39' W 002°45'0 0.0
2015-May-17 11:29N 47°39' W 002°45'0 0.0
2015-May-17 10:29N 47°39' W 002°45'0 0.0
2015-May-17 09:29N 47°39' W 002°45'0 0.0
2015-May-17 08:29N 47°39' W 002°45'0 0.0
2015-May-17 07:29N 47°39' W 002°45'0 0.0
2015-May-17 06:32N 47°39' W 002°45'0 0.0
2015-May-17 05:29N 47°39' W 002°45'0 0.0
2015-May-17 04:29N 47°39' W 002°45'0 0.0
2015-May-17 03:32N 47°39' W 002°45'0 0.0
2015-May-17 02:32N 47°39' W 002°45'0 0.0
2015-May-17 01:20N 47°39' W 002°45'0 0.0
2015-May-17 00:23N 47°39' W 002°45'0 0.0
2015-May-16 23:23N 47°39' W 002°45'0 0.0
2015-May-16 22:26N 47°39' W 002°45'0 0.0
2015-May-16 21:26N 47°39' W 002°45'0 0.0
2015-May-16 20:26N 47°39' W 002°45'0 0.0
2015-May-16 19:29N 47°39' W 002°45'0 0.0
2015-May-16 18:32N 47°39' W 002°45'0 0.0
2015-May-16 17:29N 47°39' W 002°45'0 0.0
2015-May-16 16:32N 47°39' W 002°45'  

Dump ship's entire track history